Time,TemperatureF,DewpointF,PressureIn,WindDirection,WindDirectionDegrees,WindSpeedMPH,WindSpeedGustMPH,Humidity,HourlyPrecipIn,Conditions,Clouds,dailyrainin,SoftwareType,DateUTC
2013-12-28 00:12:00,28.0,26.0,30.02,North,-999,-999.0,-999.0,93,-99.99,,,-99.99,,2013-12-28 06:12:00,
2013-12-28 00:22:00,27.0,26.0,30.02,North,-999,-999.0,-999.0,94,-99.99,,,-99.99,,2013-12-28 06:22:00,
2013-12-28 00:42:00,27.0,26.0,30.02,North,-999,-999.0,-999.0,94,-99.99,,,-99.99,,2013-12-28 06:42:00,
2013-12-28 00:52:00,26.0,25.0,30.02,North,-999,-999.0,-999.0,96,-99.99,,,-99.99,,2013-12-28 06:52:00,
2013-12-28 01:22:00,27.0,26.0,29.99,North,-999,-999.0,-999.0,97,-99.99,,,-99.99,,2013-12-28 07:22:00,
2013-12-28 01:42:00,27.0,26.0,29.99,North,-999,-999.0,-999.0,97,-99.99,,,-99.99,,2013-12-28 07:42:00,
2013-12-28 01:52:00,27.0,26.0,29.99,North,-999,-999.0,-999.0,97,-99.99,,,-99.99,,2013-12-28 07:52:00,
2013-12-28 02:11:00,26.0,26.0,29.99,North,-999,-999.0,-999.0,98,-99.99,,,-99.99,,2013-12-28 08:11:00,
2013-12-28 02:22:00,26.0,26.0,29.99,North,-999,-999.0,-999.0,98,-99.99,,,-99.99,,2013-12-28 08:22:00,
2013-12-28 02:42:00,25.0,25.0,29.99,North,-999,-999.0,-999.0,98,-99.99,,,-99.99,,2013-12-28 08:42:00,
2013-12-28 02:52:00,25.0,25.0,29.99,North,-999,-999.0,-999.0,98,-99.99,,,-99.99,,2013-12-28 08:52:00,
2013-12-28 03:11:00,24.0,23.0,29.99,North,-999,-999.0,-999.0,97,-99.99,,,-99.99,,2013-12-28 09:11:00,
2013-12-28 03:21:00,24.0,24.0,29.99,North,-999,-999.0,-999.0,99,-99.99,,,-99.99,,2013-12-28 09:21:00,
2013-12-28 03:43:00,24.0,24.0,29.99,North,-999,-999.0,-999.0,99,-99.99,,,-99.99,,2013-12-28 09:43:00,
2013-12-28 03:53:00,25.0,25.0,29.99,North,-999,-999.0,-999.0,98,-99.99,,,-99.99,,2013-12-28 09:53:00,
2013-12-28 04:12:00,23.0,22.0,29.99,North,-999,-999.0,-999.0,97,-99.99,,,-99.99,,2013-12-28 10:12:00,
2013-12-28 04:23:00,23.0,22.0,29.99,North,-999,-999.0,-999.0,97,-99.99,,,-99.99,,2013-12-28 10:23:00,
2013-12-28 04:43:00,25.0,25.0,29.99,North,-999,-999.0,-999.0,98,-99.99,,,-99.99,,2013-12-28 10:43:00,
2013-12-28 04:53:00,25.0,25.0,29.99,North,-999,-999.0,-999.0,98,-99.99,,,-99.99,,2013-12-28 10:53:00,
2013-12-28 05:12:00,22.0,21.0,29.96,North,-999,-999.0,-999.0,97,-99.99,,,-99.99,,2013-12-28 11:12:00,
2013-12-28 05:22:00,22.0,21.0,29.96,North,-999,-999.0,-999.0,96,-99.99,,,-99.99,,2013-12-28 11:22:00,
2013-12-28 05:43:00,25.0,25.0,29.96,North,-999,-999.0,-999.0,98,-99.99,,,-99.99,,2013-12-28 11:43:00,
2013-12-28 05:52:00,26.0,26.0,29.96,North,-999,-999.0,-999.0,99,-99.99,,,-99.99,,2013-12-28 11:52:00,
2013-12-28 06:11:00,26.0,26.0,29.96,North,-999,-999.0,-999.0,99,-99.99,,,-99.99,,2013-12-28 12:11:00,
2013-12-28 06:23:00,26.0,26.0,29.96,North,-999,-999.0,-999.0,98,-99.99,,,-99.99,,2013-12-28 12:23:00,
2013-12-28 06:42:00,26.0,26.0,29.96,North,-999,-999.0,-999.0,98,-99.99,,,-99.99,,2013-12-28 12:42:00,
2013-12-28 06:52:00,26.0,26.0,29.96,North,-999,-999.0,-999.0,98,-99.99,,,-99.99,,2013-12-28 12:52:00,
2013-12-28 07:21:00,27.0,27.0,29.93,North,-999,-999.0,-999.0,98,-99.99,,,-99.99,,2013-12-28 13:21:00,
2013-12-28 07:42:00,27.0,27.0,29.93,North,-999,-999.0,-999.0,98,-99.99,,,-99.99,,2013-12-28 13:42:00,
2013-12-28 07:52:00,27.0,27.0,29.93,North,-999,-999.0,-999.0,98,-99.99,,,-99.99,,2013-12-28 13:52:00,
2013-12-28 08:02:00,27.0,27.0,29.93,North,-999,-999.0,-999.0,98,-99.99,,,-99.99,,2013-12-28 14:02:00,
2013-12-28 08:12:00,27.0,27.0,29.93,North,-999,-999.0,-999.0,98,-99.99,,,-99.99,,2013-12-28 14:12:00,
2013-12-28 08:22:00,27.0,27.0,29.93,North,-999,-999.0,-999.0,98,-99.99,,,-99.99,,2013-12-28 14:22:00,
2013-12-28 08:42:00,28.0,27.0,29.93,North,-999,-999.0,-999.0,97,-99.99,,,-99.99,,2013-12-28 14:42:00,
2013-12-28 08:53:00,28.0,27.0,29.93,North,-999,-999.0,-999.0,97,-99.99,,,-99.99,,2013-12-28 14:53:00,
2013-12-28 09:22:00,30.0,28.0,29.90,North,-999,-999.0,-999.0,93,-99.99,,,-99.99,,2013-12-28 15:22:00,
2013-12-28 10:23:00,34.0,29.0,29.87,North,-999,-999.0,-999.0,82,-99.99,,,-99.99,,2013-12-28 16:23:00,
2013-12-28 10:53:00,35.0,28.0,29.87,North,-999,-999.0,-999.0,76,-99.99,,,-99.99,,2013-12-28 16:53:00,
2013-12-28 11:12:00,36.0,29.0,29.87,North,-999,-999.0,-999.0,75,-99.99,,,-99.99,,2013-12-28 17:12:00,
2013-12-28 11:22:00,36.0,29.0,29.87,North,-999,-999.0,-999.0,75,-99.99,,,-99.99,,2013-12-28 17:22:00,
2013-12-28 11:52:00,37.0,29.0,29.84,North,-999,-999.0,-999.0,73,-99.99,,,-99.99,,2013-12-28 17:52:00,
2013-12-28 12:02:00,37.0,29.0,29.84,North,-999,-999.0,-999.0,73,-99.99,,,-99.99,,2013-12-28 18:02:00,
2013-12-28 12:12:00,37.0,29.0,29.84,North,-999,-999.0,-999.0,73,-99.99,,,-99.99,,2013-12-28 18:12:00,
2013-12-28 12:22:00,37.0,29.0,29.84,North,-999,-999.0,-999.0,73,-99.99,,,-99.99,,2013-12-28 18:22:00,
2013-12-28 12:42:00,38.0,30.0,29.81,North,-999,-999.0,-999.0,73,-99.99,,,-99.99,,2013-12-28 18:42:00,
2013-12-28 12:52:00,39.0,31.0,29.81,North,-999,-999.0,-999.0,72,-99.99,,,-99.99,,2013-12-28 18:52:00,
2013-12-28 13:12:00,39.0,31.0,29.78,North,-999,-999.0,-999.0,72,-99.99,,,-99.99,,2013-12-28 19:12:00,
2013-12-28 13:21:00,40.0,32.0,29.78,North,-999,-999.0,-999.0,73,-99.99,,,-99.99,,2013-12-28 19:21:00,
2013-12-28 13:42:00,40.0,32.0,29.78,North,-999,-999.0,-999.0,72,-99.99,,,-99.99,,2013-12-28 19:42:00,
2013-12-28 13:52:00,40.0,31.0,29.78,North,-999,-999.0,-999.0,71,-99.99,,,-99.99,,2013-12-28 19:52:00,
2013-12-28 14:02:00,40.0,31.0,29.78,North,-999,-999.0,-999.0,71,-99.99,,,-99.99,,2013-12-28 20:02:00,
2013-12-28 14:11:00,40.0,31.0,29.78,North,-999,-999.0,-999.0,71,-99.99,,,-99.99,,2013-12-28 20:11:00,
2013-12-28 14:22:00,40.0,31.0,29.75,North,-999,-999.0,-999.0,71,-99.99,,,-99.99,,2013-12-28 20:22:00,
2013-12-28 14:42:00,41.0,32.0,29.72,North,-999,-999.0,-999.0,70,-99.99,,,-99.99,,2013-12-28 20:42:00,
2013-12-28 14:52:00,41.0,32.0,29.72,North,-999,-999.0,-999.0,70,-99.99,,,-99.99,,2013-12-28 20:52:00,
2013-12-28 15:12:00,41.0,32.0,29.72,North,-999,-999.0,-999.0,71,-99.99,,,-99.99,,2013-12-28 21:12:00,
2013-12-28 15:22:00,41.0,32.0,29.72,North,-999,-999.0,-999.0,70,-99.99,,,-99.99,,2013-12-28 21:22:00,
2013-12-28 15:43:00,41.0,33.0,29.72,North,-999,-999.0,-999.0,72,-99.99,,,-99.99,,2013-12-28 21:43:00,
2013-12-28 15:53:00,40.0,31.0,29.72,North,-999,-999.0,-999.0,70,-99.99,,,-99.99,,2013-12-28 21:53:00,
2013-12-28 16:03:00,40.0,31.0,29.72,North,-999,-999.0,-999.0,70,-99.99,,,-99.99,,2013-12-28 22:03:00,
2013-12-28 16:12:00,40.0,31.0,29.72,North,-999,-999.0,-999.0,70,-99.99,,,-99.99,,2013-12-28 22:12:00,
2013-12-28 16:23:00,39.0,30.0,29.72,North,-999,-999.0,-999.0,71,-99.99,,,-99.99,,2013-12-28 22:23:00,
2013-12-28 16:52:00,38.0,30.0,29.72,North,-999,-999.0,-999.0,73,-99.99,,,-99.99,,2013-12-28 22:52:00,
2013-12-28 17:11:00,37.0,30.0,29.72,North,-999,-999.0,-999.0,76,-99.99,,,-99.99,,2013-12-28 23:11:00,
2013-12-28 17:22:00,36.0,29.0,29.72,North,-999,-999.0,-999.0,77,-99.99,,,-99.99,,2013-12-28 23:22:00,
2013-12-28 17:42:00,36.0,30.0,29.72,North,-999,-999.0,-999.0,78,-99.99,,,-99.99,,2013-12-28 23:42:00,
2013-12-28 17:53:00,36.0,30.0,29.72,North,-999,-999.0,-999.0,78,-99.99,,,-99.99,,2013-12-28 23:53:00,
2013-12-28 18:11:00,35.0,29.0,29.72,North,-999,-999.0,-999.0,79,-99.99,,,-99.99,,2013-12-29 00:11:00,
2013-12-28 18:22:00,35.0,30.0,29.72,North,-999,-999.0,-999.0,81,-99.99,,,-99.99,,2013-12-29 00:22:00,
2013-12-28 18:42:00,35.0,30.0,29.72,North,-999,-999.0,-999.0,81,-99.99,,,-99.99,,2013-12-29 00:42:00,
2013-12-28 18:52:00,35.0,30.0,29.72,North,-999,-999.0,-999.0,81,-99.99,,,-99.99,,2013-12-29 00:52:00,
2013-12-28 19:11:00,35.0,30.0,29.72,North,-999,-999.0,-999.0,81,-99.99,,,-99.99,,2013-12-29 01:11:00,
2013-12-28 19:22:00,36.0,30.0,29.72,North,-999,-999.0,-999.0,79,-99.99,,,-99.99,,2013-12-29 01:22:00,
2013-12-28 19:42:00,36.0,30.0,29.72,North,-999,-999.0,-999.0,79,-99.99,,,-99.99,,2013-12-29 01:42:00,
2013-12-28 19:52:00,36.0,30.0,29.72,North,-999,-999.0,-999.0,79,-99.99,,,-99.99,,2013-12-29 01:52:00,
2013-12-28 20:11:00,36.0,31.0,29.72,North,-999,-999.0,-999.0,81,-99.99,,,-99.99,,2013-12-29 02:11:00,
2013-12-28 20:22:00,37.0,31.0,29.72,North,-999,-999.0,-999.0,80,-99.99,,,-99.99,,2013-12-29 02:22:00,
2013-12-28 20:32:00,37.0,31.0,29.72,North,-999,-999.0,-999.0,80,-99.99,,,-99.99,,2013-12-29 02:32:00,
2013-12-28 20:42:00,37.0,31.0,29.72,North,-999,-999.0,-999.0,80,-99.99,,,-99.99,,2013-12-29 02:42:00,
2013-12-28 20:52:00,37.0,31.0,29.72,North,-999,-999.0,-999.0,80,-99.99,,,-99.99,,2013-12-29 02:52:00,
2013-12-28 21:22:00,37.0,32.0,29.72,North,-999,-999.0,-999.0,81,-99.99,,,-99.99,,2013-12-29 03:22:00,
2013-12-28 21:43:00,37.0,32.0,29.72,North,-999,-999.0,-999.0,81,-99.99,,,-99.99,,2013-12-29 03:43:00,
2013-12-28 21:53:00,38.0,32.0,29.72,North,-999,-999.0,-999.0,79,-99.99,,,-99.99,,2013-12-29 03:53:00,
2013-12-28 22:13:00,38.0,32.0,29.72,North,-999,-999.0,-999.0,78,-99.99,,,-99.99,,2013-12-29 04:13:00,
2013-12-28 22:22:00,38.0,31.0,29.72,North,-999,-999.0,-999.0,77,-99.99,,,-99.99,,2013-12-29 04:22:00,
2013-12-28 22:42:00,38.0,31.0,29.72,North,-999,-999.0,-999.0,75,-99.99,,,-99.99,,2013-12-29 04:42:00,
2013-12-28 22:53:00,38.0,31.0,29.72,North,-999,-999.0,-999.0,75,-99.99,,,-99.99,,2013-12-29 04:53:00,
2013-12-28 23:12:00,37.0,30.0,29.75,North,-999,-999.0,-999.0,77,-99.99,,,-99.99,,2013-12-29 05:12:00,
2013-12-28 23:23:00,37.0,31.0,29.75,North,-999,-999.0,-999.0,78,-99.99,,,-99.99,,2013-12-29 05:23:00,
2013-12-28 23:43:00,35.0,29.0,29.75,North,-999,-999.0,-999.0,78,-99.99,,,-99.99,,2013-12-29 05:43:00,
2013-12-28 23:53:00,35.0,29.0,29.78,North,-999,-999.0,-999.0,79,-99.99,,,-99.99,,2013-12-29 05:53:00,